sensor_id;sensor_type;location;lat;lon;timestamp;temperature;humidity
78733;DHT22;68056;52.530;5.454;2023-11-21T00:02:20;9.00;78.70
78733;DHT22;68056;52.530;5.454;2023-11-21T00:04:46;9.00;78.70
78733;DHT22;68056;52.530;5.454;2023-11-21T00:07:12;9.00;78.80
78733;DHT22;68056;52.530;5.454;2023-11-21T00:09:38;9.10;78.70
78733;DHT22;68056;52.530;5.454;2023-11-21T00:12:04;9.10;78.60
78733;DHT22;68056;52.530;5.454;2023-11-21T00:14:30;9.20;78.60
78733;DHT22;68056;52.530;5.454;2023-11-21T00:16:55;9.20;78.60
78733;DHT22;68056;52.530;5.454;2023-11-21T00:19:21;9.20;78.70
78733;DHT22;68056;52.530;5.454;2023-11-21T00:21:46;9.20;78.60
78733;DHT22;68056;52.530;5.454;2023-11-21T00:24:12;9.20;78.60
78733;DHT22;68056;52.530;5.454;2023-11-21T00:26:39;9.20;78.60
78733;DHT22;68056;52.530;5.454;2023-11-21T00:29:05;9.20;78.60
78733;DHT22;68056;52.530;5.454;2023-11-21T00:31:37;9.20;78.60
78733;DHT22;68056;52.530;5.454;2023-11-21T00:34:03;9.20;78.60
78733;DHT22;68056;52.530;5.454;2023-11-21T00:36:31;9.20;78.70
78733;DHT22;68056;52.530;5.454;2023-11-21T00:38:57;9.20;78.60
78733;DHT22;68056;52.530;5.454;2023-11-21T00:41:22;9.20;78.70
78733;DHT22;68056;52.530;5.454;2023-11-21T00:43:48;9.20;78.60
78733;DHT22;68056;52.530;5.454;2023-11-21T00:46:14;9.20;78.70
78733;DHT22;68056;52.530;5.454;2023-11-21T00:48:39;9.20;78.70
78733;DHT22;68056;52.530;5.454;2023-11-21T00:51:05;9.20;78.60
78733;DHT22;68056;52.530;5.454;2023-11-21T00:53:31;9.20;78.70
78733;DHT22;68056;52.530;5.454;2023-11-21T00:55:57;9.20;78.70
78733;DHT22;68056;52.530;5.454;2023-11-21T00:58:26;9.20;78.70
78733;DHT22;68056;52.530;5.454;2023-11-21T01:00:51;9.20;78.70
78733;DHT22;68056;52.530;5.454;2023-11-21T01:03:17;9.20;78.70
78733;DHT22;68056;52.530;5.454;2023-11-21T01:05:42;9.30;78.70
78733;DHT22;68056;52.530;5.454;2023-11-21T01:08:08;9.30;78.70
78733;DHT22;68056;52.530;5.454;2023-11-21T01:10:33;9.30;78.70
78733;DHT22;68056;52.530;5.454;2023-11-21T01:13:02;9.40;78.70
78733;DHT22;68056;52.530;5.454;2023-11-21T01:15:29;9.40;78.70
78733;DHT22;68056;52.530;5.454;2023-11-21T01:17:55;9.40;78.70
78733;DHT22;68056;52.530;5.454;2023-11-21T01:20:20;9.40;78.70
78733;DHT22;68056;52.530;5.454;2023-11-21T01:22:46;9.40;78.70
78733;DHT22;68056;52.530;5.454;2023-11-21T01:25:14;9.40;78.60
78733;DHT22;68056;52.530;5.454;2023-11-21T01:27:41;9.40;78.60
78733;DHT22;68056;52.530;5.454;2023-11-21T01:30:07;9.40;78.70
78733;DHT22;68056;52.530;5.454;2023-11-21T01:32:34;9.50;78.60
78733;DHT22;68056;52.530;5.454;2023-11-21T01:35:00;9.50;78.60
78733;DHT22;68056;52.530;5.454;2023-11-21T01:37:26;9.50;78.60
78733;DHT22;68056;52.530;5.454;2023-11-21T01:39:53;9.50;78.70
78733;DHT22;68056;52.530;5.454;2023-11-21T01:42:20;9.40;78.60
78733;DHT22;68056;52.530;5.454;2023-11-21T01:44:46;9.50;78.70
78733;DHT22;68056;52.530;5.454;2023-11-21T01:47:13;9.50;78.70
78733;DHT22;68056;52.530;5.454;2023-11-21T01:49:38;9.50;78.70
78733;DHT22;68056;52.530;5.454;2023-11-21T01:52:04;9.50;78.70
78733;DHT22;68056;52.530;5.454;2023-11-21T01:54:31;9.50;78.80
78733;DHT22;68056;52.530;5.454;2023-11-21T01:57:00;9.50;78.80
78733;DHT22;68056;52.530;5.454;2023-11-21T01:59:31;9.50;78.80
78733;DHT22;68056;52.530;5.454;2023-11-21T02:01:59;9.50;78.70
78733;DHT22;68056;52.530;5.454;2023-11-21T02:04:25;9.50;78.70
78733;DHT22;68056;52.530;5.454;2023-11-21T02:06:50;9.50;78.80
78733;DHT22;68056;52.530;5.454;2023-11-21T02:09:16;9.50;78.80
78733;DHT22;68056;52.530;5.454;2023-11-21T02:11:43;9.50;78.80
78733;DHT22;68056;52.530;5.454;2023-11-21T02:14:09;9.60;78.80
78733;DHT22;68056;52.530;5.454;2023-11-21T02:16:35;9.60;78.80
78733;DHT22;68056;52.530;5.454;2023-11-21T02:19:02;9.60;78.80
78733;DHT22;68056;52.530;5.454;2023-11-21T02:21:30;9.60;78.90
78733;DHT22;68056;52.530;5.454;2023-11-21T02:23:56;9.60;78.80
78733;DHT22;68056;52.530;5.454;2023-11-21T02:26:21;9.60;78.90
78733;DHT22;68056;52.530;5.454;2023-11-21T02:28:47;9.60;78.90
78733;DHT22;68056;52.530;5.454;2023-11-21T02:31:13;9.60;78.80
78733;DHT22;68056;52.530;5.454;2023-11-21T02:33:38;9.60;78.90
78733;DHT22;68056;52.530;5.454;2023-11-21T02:36:04;9.60;78.80
78733;DHT22;68056;52.530;5.454;2023-11-21T02:38:30;9.60;78.90
78733;DHT22;68056;52.530;5.454;2023-11-21T02:40:57;9.60;78.90
78733;DHT22;68056;52.530;5.454;2023-11-21T02:43:24;9.60;78.90
78733;DHT22;68056;52.530;5.454;2023-11-21T02:45:50;9.70;78.80
78733;DHT22;68056;52.530;5.454;2023-11-21T02:48:15;9.70;78.90
78733;DHT22;68056;52.530;5.454;2023-11-21T02:50:41;9.70;78.90
78733;DHT22;68056;52.530;5.454;2023-11-21T02:53:08;9.60;78.90
78733;DHT22;68056;52.530;5.454;2023-11-21T02:55:36;9.60;78.90
78733;DHT22;68056;52.530;5.454;2023-11-21T02:58:02;9.60;79.00
78733;DHT22;68056;52.530;5.454;2023-11-21T03:00:29;9.60;79.00
78733;DHT22;68056;52.530;5.454;2023-11-21T03:02:56;9.60;79.00
78733;DHT22;68056;52.530;5.454;2023-11-21T03:05:21;9.60;79.00
78733;DHT22;68056;52.530;5.454;2023-11-21T03:07:47;9.60;79.00
78733;DHT22;68056;52.530;5.454;2023-11-21T03:10:13;9.60;79.00
78733;DHT22;68056;52.530;5.454;2023-11-21T03:12:39;9.60;79.00
78733;DHT22;68056;52.530;5.454;2023-11-21T03:15:06;9.60;79.00
78733;DHT22;68056;52.530;5.454;2023-11-21T03:17:31;9.70;79.00
78733;DHT22;68056;52.530;5.454;2023-11-21T03:19:59;9.70;79.10
78733;DHT22;68056;52.530;5.454;2023-11-21T03:22:25;9.70;79.10
78733;DHT22;68056;52.530;5.454;2023-11-21T03:24:50;9.70;79.00
78733;DHT22;68056;52.530;5.454;2023-11-21T03:27:16;9.70;79.10
78733;DHT22;68056;52.530;5.454;2023-11-21T03:29:41;9.70;79.00
78733;DHT22;68056;52.530;5.454;2023-11-21T03:32:07;9.70;79.00
78733;DHT22;68056;52.530;5.454;2023-11-21T03:34:33;9.70;79.00
78733;DHT22;68056;52.530;5.454;2023-11-21T03:36:58;9.70;79.00
78733;DHT22;68056;52.530;5.454;2023-11-21T03:39:24;9.70;79.10
78733;DHT22;68056;52.530;5.454;2023-11-21T03:41:51;9.80;79.10
78733;DHT22;68056;52.530;5.454;2023-11-21T03:44:17;9.80;79.10
78733;DHT22;68056;52.530;5.454;2023-11-21T03:46:43;9.80;79.10
78733;DHT22;68056;52.530;5.454;2023-11-21T03:49:09;9.70;79.10
78733;DHT22;68056;52.530;5.454;2023-11-21T03:51:36;9.70;79.20
78733;DHT22;68056;52.530;5.454;2023-11-21T03:54:02;9.80;79.30
78733;DHT22;68056;52.530;5.454;2023-11-21T03:56:28;9.80;79.30
78733;DHT22;68056;52.530;5.454;2023-11-21T03:58:54;9.80;79.20
78733;DHT22;68056;52.530;5.454;2023-11-21T04:01:22;9.80;79.20
78733;DHT22;68056;52.530;5.454;2023-11-21T04:03:49;9.80;79.20
78733;DHT22;68056;52.530;5.454;2023-11-21T04:06:15;9.80;79.20
78733;DHT22;68056;52.530;5.454;2023-11-21T04:08:45;9.90;79.30
78733;DHT22;68056;52.530;5.454;2023-11-21T04:11:11;9.80;79.30
78733;DHT22;68056;52.530;5.454;2023-11-21T04:13:40;9.90;79.20
78733;DHT22;68056;52.530;5.454;2023-11-21T04:16:07;9.90;79.30
78733;DHT22;68056;52.530;5.454;2023-11-21T04:18:33;9.90;79.30
78733;DHT22;68056;52.530;5.454;2023-11-21T04:20:59;9.80;79.30
78733;DHT22;68056;52.530;5.454;2023-11-21T04:23:25;9.80;79.30
78733;DHT22;68056;52.530;5.454;2023-11-21T04:25:51;9.80;79.40
78733;DHT22;68056;52.530;5.454;2023-11-21T04:28:19;9.80;79.30
78733;DHT22;68056;52.530;5.454;2023-11-21T04:30:45;9.90;79.30
78733;DHT22;68056;52.530;5.454;2023-11-21T04:33:10;9.90;79.40
78733;DHT22;68056;52.530;5.454;2023-11-21T04:35:36;10.00;79.40
78733;DHT22;68056;52.530;5.454;2023-11-21T04:38:01;10.00;79.40
78733;DHT22;68056;52.530;5.454;2023-11-21T04:40:28;10.00;79.40
78733;DHT22;68056;52.530;5.454;2023-11-21T04:42:53;10.00;79.40
78733;DHT22;68056;52.530;5.454;2023-11-21T04:45:19;10.00;79.40
78733;DHT22;68056;52.530;5.454;2023-11-21T04:47:44;10.00;79.50
78733;DHT22;68056;52.530;5.454;2023-11-21T04:50:10;10.00;79.40
78733;DHT22;68056;52.530;5.454;2023-11-21T04:52:36;10.00;79.40
78733;DHT22;68056;52.530;5.454;2023-11-21T04:55:01;10.00;79.40
78733;DHT22;68056;52.530;5.454;2023-11-21T04:57:28;10.00;79.40
78733;DHT22;68056;52.530;5.454;2023-11-21T04:59:54;10.00;79.40
78733;DHT22;68056;52.530;5.454;2023-11-21T05:02:19;10.00;79.40
78733;DHT22;68056;52.530;5.454;2023-11-21T05:04:46;10.10;79.40
78733;DHT22;68056;52.530;5.454;2023-11-21T05:07:12;10.10;79.50
78733;DHT22;68056;52.530;5.454;2023-11-21T05:09:44;10.10;79.50
78733;DHT22;68056;52.530;5.454;2023-11-21T05:12:14;10.10;79.40
78733;DHT22;68056;52.530;5.454;2023-11-21T05:14:40;10.10;79.50
78733;DHT22;68056;52.530;5.454;2023-11-21T05:17:05;10.10;79.50
78733;DHT22;68056;52.530;5.454;2023-11-21T05:19:33;10.10;79.50
78733;DHT22;68056;52.530;5.454;2023-11-21T05:21:59;10.10;79.50
78733;DHT22;68056;52.530;5.454;2023-11-21T05:24:26;10.10;79.50
78733;DHT22;68056;52.530;5.454;2023-11-21T05:26:51;10.10;79.60
78733;DHT22;68056;52.530;5.454;2023-11-21T05:29:18;10.10;79.50
78733;DHT22;68056;52.530;5.454;2023-11-21T05:31:43;10.10;79.60
78733;DHT22;68056;52.530;5.454;2023-11-21T05:34:09;10.10;79.60
78733;DHT22;68056;52.530;5.454;2023-11-21T05:36:34;10.10;79.60
78733;DHT22;68056;52.530;5.454;2023-11-21T05:39:00;10.10;79.60
78733;DHT22;68056;52.530;5.454;2023-11-21T05:41:26;10.10;79.60
78733;DHT22;68056;52.530;5.454;2023-11-21T05:43:51;10.10;79.70
78733;DHT22;68056;52.530;5.454;2023-11-21T05:46:17;10.10;79.70
78733;DHT22;68056;52.530;5.454;2023-11-21T05:48:43;10.10;79.70
78733;DHT22;68056;52.530;5.454;2023-11-21T05:51:09;10.10;79.70
78733;DHT22;68056;52.530;5.454;2023-11-21T05:53:34;10.10;79.60
78733;DHT22;68056;52.530;5.454;2023-11-21T05:56:00;10.10;79.70
78733;DHT22;68056;52.530;5.454;2023-11-21T05:58:25;10.10;79.70
78733;DHT22;68056;52.530;5.454;2023-11-21T06:00:51;10.10;79.70
78733;DHT22;68056;52.530;5.454;2023-11-21T06:03:17;10.10;79.70
78733;DHT22;68056;52.530;5.454;2023-11-21T06:05:42;10.10;79.70
78733;DHT22;68056;52.530;5.454;2023-11-21T06:08:09;10.10;79.70
78733;DHT22;68056;52.530;5.454;2023-11-21T06:10:34;10.10;79.70
78733;DHT22;68056;52.530;5.454;2023-11-21T06:13:00;10.20;79.70
78733;DHT22;68056;52.530;5.454;2023-11-21T06:15:25;10.20;79.70
78733;DHT22;68056;52.530;5.454;2023-11-21T06:17:51;10.20;79.70
78733;DHT22;68056;52.530;5.454;2023-11-21T06:20:18;10.20;79.70
78733;DHT22;68056;52.530;5.454;2023-11-21T06:22:48;10.20;79.70
78733;DHT22;68056;52.530;5.454;2023-11-21T06:25:15;10.20;79.80
78733;DHT22;68056;52.530;5.454;2023-11-21T06:27:45;10.20;79.80
78733;DHT22;68056;52.530;5.454;2023-11-21T06:30:12;10.20;79.70
78733;DHT22;68056;52.530;5.454;2023-11-21T06:32:39;10.20;79.80
78733;DHT22;68056;52.530;5.454;2023-11-21T06:35:11;10.20;79.80
78733;DHT22;68056;52.530;5.454;2023-11-21T06:37:37;10.20;79.80
78733;DHT22;68056;52.530;5.454;2023-11-21T06:40:03;10.20;79.70
78733;DHT22;68056;52.530;5.454;2023-11-21T06:42:31;10.20;79.80
78733;DHT22;68056;52.530;5.454;2023-11-21T06:44:58;10.20;79.80
78733;DHT22;68056;52.530;5.454;2023-11-21T06:47:24;10.20;79.80
78733;DHT22;68056;52.530;5.454;2023-11-21T06:49:51;10.20;79.80
78733;DHT22;68056;52.530;5.454;2023-11-21T06:52:17;10.30;79.80
78733;DHT22;68056;52.530;5.454;2023-11-21T06:54:43;10.30;79.80
78733;DHT22;68056;52.530;5.454;2023-11-21T06:57:09;10.30;79.80
78733;DHT22;68056;52.530;5.454;2023-11-21T06:59:35;10.30;79.90
78733;DHT22;68056;52.530;5.454;2023-11-21T07:02:01;10.30;79.90
78733;DHT22;68056;52.530;5.454;2023-11-21T07:04:26;10.40;79.80
78733;DHT22;68056;52.530;5.454;2023-11-21T07:06:53;10.40;79.80
78733;DHT22;68056;52.530;5.454;2023-11-21T07:09:19;10.40;79.80
78733;DHT22;68056;52.530;5.454;2023-11-21T07:11:48;10.40;79.80
78733;DHT22;68056;52.530;5.454;2023-11-21T07:14:14;10.40;79.70
78733;DHT22;68056;52.530;5.454;2023-11-21T07:16:39;10.40;79.80
78733;DHT22;68056;52.530;5.454;2023-11-21T07:19:06;10.40;79.90
78733;DHT22;68056;52.530;5.454;2023-11-21T07:21:32;10.40;79.80
78733;DHT22;68056;52.530;5.454;2023-11-21T07:24:02;10.40;79.90
78733;DHT22;68056;52.530;5.454;2023-11-21T07:26:28;10.40;80.00
78733;DHT22;68056;52.530;5.454;2023-11-21T07:28:54;10.30;80.00
78733;DHT22;68056;52.530;5.454;2023-11-21T07:31:20;10.30;79.90
78733;DHT22;68056;52.530;5.454;2023-11-21T07:33:48;10.30;80.00
78733;DHT22;68056;52.530;5.454;2023-11-21T07:36:14;10.30;80.00
78733;DHT22;68056;52.530;5.454;2023-11-21T07:38:40;10.30;80.00
78733;DHT22;68056;52.530;5.454;2023-11-21T07:41:06;10.30;80.00
78733;DHT22;68056;52.530;5.454;2023-11-21T07:43:36;10.30;80.00
78733;DHT22;68056;52.530;5.454;2023-11-21T07:46:02;10.30;80.00
78733;DHT22;68056;52.530;5.454;2023-11-21T07:48:32;10.40;80.10
78733;DHT22;68056;52.530;5.454;2023-11-21T07:50:58;10.40;80.00
78733;DHT22;68056;52.530;5.454;2023-11-21T07:53:24;10.40;80.00
78733;DHT22;68056;52.530;5.454;2023-11-21T07:55:52;10.40;80.00
78733;DHT22;68056;52.530;5.454;2023-11-21T07:58:17;10.40;80.00
78733;DHT22;68056;52.530;5.454;2023-11-21T08:00:43;10.40;80.00
78733;DHT22;68056;52.530;5.454;2023-11-21T08:03:09;10.40;80.00
78733;DHT22;68056;52.530;5.454;2023-11-21T08:05:35;10.50;80.00
78733;DHT22;68056;52.530;5.454;2023-11-21T08:08:00;10.50;79.90
78733;DHT22;68056;52.530;5.454;2023-11-21T08:10:26;10.50;79.80
78733;DHT22;68056;52.530;5.454;2023-11-21T08:12:52;10.60;79.70
78733;DHT22;68056;52.530;5.454;2023-11-21T08:15:19;10.50;79.80
78733;DHT22;68056;52.530;5.454;2023-11-21T08:17:44;10.50;79.80
78733;DHT22;68056;52.530;5.454;2023-11-21T08:20:10;10.50;79.80
78733;DHT22;68056;52.530;5.454;2023-11-21T08:22:36;10.50;79.80
78733;DHT22;68056;52.530;5.454;2023-11-21T08:25:02;10.50;79.90
78733;DHT22;68056;52.530;5.454;2023-11-21T08:27:30;10.40;79.90
78733;DHT22;68056;52.530;5.454;2023-11-21T08:29:55;10.40;79.90
78733;DHT22;68056;52.530;5.454;2023-11-21T08:32:22;10.40;80.00
78733;DHT22;68056;52.530;5.454;2023-11-21T08:34:48;10.40;79.90
78733;DHT22;68056;52.530;5.454;2023-11-21T08:37:16;10.40;80.10
78733;DHT22;68056;52.530;5.454;2023-11-21T08:39:43;10.40;80.00
78733;DHT22;68056;52.530;5.454;2023-11-21T08:42:08;10.40;80.00
78733;DHT22;68056;52.530;5.454;2023-11-21T08:44:34;10.40;80.00
78733;DHT22;68056;52.530;5.454;2023-11-21T08:47:00;10.40;80.00
78733;DHT22;68056;52.530;5.454;2023-11-21T08:49:25;10.40;80.00
78733;DHT22;68056;52.530;5.454;2023-11-21T08:51:53;10.40;80.00
78733;DHT22;68056;52.530;5.454;2023-11-21T08:54:20;10.40;80.00
78733;DHT22;68056;52.530;5.454;2023-11-21T08:56:46;10.30;80.00
78733;DHT22;68056;52.530;5.454;2023-11-21T08:59:12;10.30;80.00
78733;DHT22;68056;52.530;5.454;2023-11-21T09:01:40;10.30;80.00
78733;DHT22;68056;52.530;5.454;2023-11-21T09:04:06;10.30;80.00
78733;DHT22;68056;52.530;5.454;2023-11-21T09:06:31;10.30;80.10
78733;DHT22;68056;52.530;5.454;2023-11-21T09:08:57;10.30;80.00
78733;DHT22;68056;52.530;5.454;2023-11-21T09:11:23;10.30;80.00
78733;DHT22;68056;52.530;5.454;2023-11-21T09:13:50;10.30;80.00
78733;DHT22;68056;52.530;5.454;2023-11-21T09:16:16;10.30;80.00
78733;DHT22;68056;52.530;5.454;2023-11-21T09:18:42;10.30;80.10
78733;DHT22;68056;52.530;5.454;2023-11-21T09:21:08;10.30;80.00
78733;DHT22;68056;52.530;5.454;2023-11-21T09:23:35;10.30;80.00
78733;DHT22;68056;52.530;5.454;2023-11-21T09:26:01;10.30;80.00
78733;DHT22;68056;52.530;5.454;2023-11-21T09:28:27;10.30;80.00
78733;DHT22;68056;52.530;5.454;2023-11-21T09:30:53;10.40;80.00
78733;DHT22;68056;52.530;5.454;2023-11-21T09:33:19;10.40;80.00
78733;DHT22;68056;52.530;5.454;2023-11-21T09:35:46;10.40;80.00
78733;DHT22;68056;52.530;5.454;2023-11-21T09:38:11;10.40;80.00
78733;DHT22;68056;52.530;5.454;2023-11-21T09:40:37;10.40;80.00
78733;DHT22;68056;52.530;5.454;2023-11-21T09:43:08;10.40;80.00
78733;DHT22;68056;52.530;5.454;2023-11-21T09:45:39;10.40;80.00
78733;DHT22;68056;52.530;5.454;2023-11-21T09:48:06;10.40;80.00
78733;DHT22;68056;52.530;5.454;2023-11-21T09:50:32;10.40;79.90
78733;DHT22;68056;52.530;5.454;2023-11-21T09:53:17;10.30;79.90
78733;DHT22;68056;52.530;5.454;2023-11-21T09:55:45;10.30;80.00
78733;DHT22;68056;52.530;5.454;2023-11-21T09:58:13;10.30;80.00
78733;DHT22;68056;52.530;5.454;2023-11-21T10:00:43;10.30;80.00
78733;DHT22;68056;52.530;5.454;2023-11-21T10:03:10;10.30;80.00
78733;DHT22;68056;52.530;5.454;2023-11-21T10:05:37;10.30;80.00
78733;DHT22;68056;52.530;5.454;2023-11-21T10:08:12;10.30;80.00
78733;DHT22;68056;52.530;5.454;2023-11-21T10:10:45;10.30;80.00
78733;DHT22;68056;52.530;5.454;2023-11-21T10:13:12;10.30;79.90
78733;DHT22;68056;52.530;5.454;2023-11-21T10:15:42;10.40;79.90
78733;DHT22;68056;52.530;5.454;2023-11-21T10:18:14;10.40;79.80
78733;DHT22;68056;52.530;5.454;2023-11-21T10:20:40;10.40;79.80
78733;DHT22;68056;52.530;5.454;2023-11-21T10:23:07;10.50;79.80
78733;DHT22;68056;52.530;5.454;2023-11-21T10:25:36;10.60;79.80
78733;DHT22;68056;52.530;5.454;2023-11-21T10:28:03;10.60;79.70
78733;DHT22;68056;52.530;5.454;2023-11-21T10:30:34;10.70;79.70
78733;DHT22;68056;52.530;5.454;2023-11-21T10:33:02;10.80;79.60
78733;DHT22;68056;52.530;5.454;2023-11-21T10:35:47;10.80;79.40
78733;DHT22;68056;52.530;5.454;2023-11-21T10:38:19;10.80;79.40
78733;DHT22;68056;52.530;5.454;2023-11-21T10:40:48;10.80;79.40
78733;DHT22;68056;52.530;5.454;2023-11-21T10:43:14;10.80;79.40
78733;DHT22;68056;52.530;5.454;2023-11-21T10:45:41;10.80;79.50
78733;DHT22;68056;52.530;5.454;2023-11-21T10:48:14;10.80;79.50
78733;DHT22;68056;52.530;5.454;2023-11-21T10:50:41;10.80;79.50
78733;DHT22;68056;52.530;5.454;2023-11-21T10:53:07;10.80;79.50
78733;DHT22;68056;52.530;5.454;2023-11-21T10:55:34;10.80;79.60
78733;DHT22;68056;52.530;5.454;2023-11-21T10:58:02;10.80;79.60
78733;DHT22;68056;52.530;5.454;2023-11-21T11:00:31;10.80;79.60
78733;DHT22;68056;52.530;5.454;2023-11-21T11:02:57;10.90;79.60
78733;DHT22;68056;52.530;5.454;2023-11-21T11:05:28;11.00;79.70
78733;DHT22;68056;52.530;5.454;2023-11-21T11:08:05;11.00;79.50
78733;DHT22;68056;52.530;5.454;2023-11-21T11:10:33;11.10;79.30
78733;DHT22;68056;52.530;5.454;2023-11-21T11:12:59;11.00;79.30
78733;DHT22;68056;52.530;5.454;2023-11-21T11:15:26;10.90;79.30
78733;DHT22;68056;52.530;5.454;2023-11-21T11:17:52;10.90;79.40
78733;DHT22;68056;52.530;5.454;2023-11-21T11:20:23;10.80;79.40
78733;DHT22;68056;52.530;5.454;2023-11-21T11:25:53;10.60;79.70
78733;DHT22;68056;52.530;5.454;2023-11-21T11:28:38;10.60;79.70
78733;DHT22;68056;52.530;5.454;2023-11-21T11:38:46;10.50;79.80
78733;DHT22;68056;52.530;5.454;2023-11-21T11:41:27;10.50;79.80
78733;DHT22;68056;52.530;5.454;2023-11-21T11:43:55;10.50;79.90
78733;DHT22;68056;52.530;5.454;2023-11-21T11:46:20;10.50;79.90
78733;DHT22;68056;52.530;5.454;2023-11-21T11:49:02;10.50;79.90
78733;DHT22;68056;52.530;5.454;2023-11-21T11:51:28;10.50;79.80
78733;DHT22;68056;52.530;5.454;2023-11-21T11:53:55;10.60;79.70
78733;DHT22;68056;52.530;5.454;2023-11-21T11:58:52;10.50;79.70
78733;DHT22;68056;52.530;5.454;2023-11-21T12:01:22;10.50;79.70
78733;DHT22;68056;52.530;5.454;2023-11-21T12:06:43;10.50;79.70
78733;DHT22;68056;52.530;5.454;2023-11-21T12:09:19;10.40;79.70
78733;DHT22;68056;52.530;5.454;2023-11-21T12:11:47;10.40;79.70
78733;DHT22;68056;52.530;5.454;2023-11-21T12:14:13;10.40;79.80
78733;DHT22;68056;52.530;5.454;2023-11-21T12:16:39;10.50;79.80
78733;DHT22;68056;52.530;5.454;2023-11-21T12:19:05;10.60;79.70
78733;DHT22;68056;52.530;5.454;2023-11-21T12:21:31;10.60;79.50
78733;DHT22;68056;52.530;5.454;2023-11-21T12:23:57;10.60;79.50
78733;DHT22;68056;52.530;5.454;2023-11-21T12:26:26;10.60;79.50
78733;DHT22;68056;52.530;5.454;2023-11-21T12:28:53;10.60;79.50
78733;DHT22;68056;52.530;5.454;2023-11-21T12:31:24;10.60;79.40
78733;DHT22;68056;52.530;5.454;2023-11-21T12:33:50;10.60;79.50
78733;DHT22;68056;52.530;5.454;2023-11-21T12:36:16;10.60;79.50
78733;DHT22;68056;52.530;5.454;2023-11-21T12:38:42;10.60;79.50
78733;DHT22;68056;52.530;5.454;2023-11-21T12:41:09;10.60;79.40
78733;DHT22;68056;52.530;5.454;2023-11-21T12:43:38;10.50;79.40
78733;DHT22;68056;52.530;5.454;2023-11-21T12:46:09;10.50;79.40
78733;DHT22;68056;52.530;5.454;2023-11-21T12:48:38;10.40;79.40
78733;DHT22;68056;52.530;5.454;2023-11-21T12:51:08;10.40;79.50
78733;DHT22;68056;52.530;5.454;2023-11-21T12:53:35;10.40;79.50
78733;DHT22;68056;52.530;5.454;2023-11-21T12:56:09;10.40;79.30
78733;DHT22;68056;52.530;5.454;2023-11-21T12:58:37;10.40;79.30
78733;DHT22;68056;52.530;5.454;2023-11-21T13:01:05;10.40;79.30
78733;DHT22;68056;52.530;5.454;2023-11-21T13:03:31;10.30;79.30
78733;DHT22;68056;52.530;5.454;2023-11-21T13:05:58;10.30;79.20
78733;DHT22;68056;52.530;5.454;2023-11-21T13:08:25;10.30;79.20
78733;DHT22;68056;52.530;5.454;2023-11-21T13:10:55;10.20;79.40
78733;DHT22;68056;52.530;5.454;2023-11-21T13:13:22;10.20;79.30
78733;DHT22;68056;52.530;5.454;2023-11-21T13:15:54;10.10;79.40
78733;DHT22;68056;52.530;5.454;2023-11-21T13:18:26;10.10;79.30
78733;DHT22;68056;52.530;5.454;2023-11-21T13:20:55;10.10;79.30
78733;DHT22;68056;52.530;5.454;2023-11-21T13:23:22;10.10;79.20
78733;DHT22;68056;52.530;5.454;2023-11-21T13:25:48;10.00;79.20
78733;DHT22;68056;52.530;5.454;2023-11-21T13:28:15;10.00;79.20
78733;DHT22;68056;52.530;5.454;2023-11-21T13:30:41;10.00;79.20
78733;DHT22;68056;52.530;5.454;2023-11-21T13:33:07;10.00;79.20
78733;DHT22;68056;52.530;5.454;2023-11-21T13:35:37;10.00;79.20
78733;DHT22;68056;52.530;5.454;2023-11-21T13:38:11;10.00;79.10
78733;DHT22;68056;52.530;5.454;2023-11-21T13:40:38;10.00;79.10
78733;DHT22;68056;52.530;5.454;2023-11-21T13:43:17;9.90;79.00
78733;DHT22;68056;52.530;5.454;2023-11-21T13:45:48;9.80;79.10
78733;DHT22;68056;52.530;5.454;2023-11-21T13:48:17;9.80;79.10
78733;DHT22;68056;52.530;5.454;2023-11-21T13:50:50;9.80;79.10
78733;DHT22;68056;52.530;5.454;2023-11-21T13:53:27;9.90;79.10
78733;DHT22;68056;52.530;5.454;2023-11-21T13:55:55;9.90;79.00
78733;DHT22;68056;52.530;5.454;2023-11-21T13:58:23;10.00;78.90
78733;DHT22;68056;52.530;5.454;2023-11-21T14:01:00;10.00;78.70
78733;DHT22;68056;52.530;5.454;2023-11-21T14:03:27;10.00;78.70
78733;DHT22;68056;52.530;5.454;2023-11-21T14:06:05;10.00;78.60
78733;DHT22;68056;52.530;5.454;2023-11-21T14:08:40;10.00;78.70
78733;DHT22;68056;52.530;5.454;2023-11-21T14:11:05;10.00;78.50
78733;DHT22;68056;52.530;5.454;2023-11-21T14:13:32;10.10;78.60
78733;DHT22;68056;52.530;5.454;2023-11-21T14:15:58;10.20;78.40
78733;DHT22;68056;52.530;5.454;2023-11-21T14:18:26;10.30;78.20
78733;DHT22;68056;52.530;5.454;2023-11-21T14:21:16;10.30;78.00
78733;DHT22;68056;52.530;5.454;2023-11-21T14:23:42;10.30;77.90
78733;DHT22;68056;52.530;5.454;2023-11-21T14:26:08;10.30;77.80
78733;DHT22;68056;52.530;5.454;2023-11-21T14:28:34;10.20;77.80
78733;DHT22;68056;52.530;5.454;2023-11-21T14:31:01;10.20;77.90
78733;DHT22;68056;52.530;5.454;2023-11-21T14:33:28;10.10;77.90
78733;DHT22;68056;52.530;5.454;2023-11-21T14:35:53;10.10;77.90
78733;DHT22;68056;52.530;5.454;2023-11-21T14:38:19;10.00;78.00
78733;DHT22;68056;52.530;5.454;2023-11-21T14:40:45;10.00;78.10
78733;DHT22;68056;52.530;5.454;2023-11-21T14:43:11;10.00;78.10
78733;DHT22;68056;52.530;5.454;2023-11-21T14:45:38;9.90;78.10
78733;DHT22;68056;52.530;5.454;2023-11-21T14:48:04;9.80;78.10
78733;DHT22;68056;52.530;5.454;2023-11-21T14:50:30;9.80;78.20
78733;DHT22;68056;52.530;5.454;2023-11-21T14:53:04;9.70;78.10
78733;DHT22;68056;52.530;5.454;2023-11-21T14:55:35;9.70;78.20
78733;DHT22;68056;52.530;5.454;2023-11-21T14:58:13;9.60;78.20
78733;DHT22;68056;52.530;5.454;2023-11-21T15:00:42;9.50;78.30
78733;DHT22;68056;52.530;5.454;2023-11-21T15:03:10;9.40;78.20
78733;DHT22;68056;52.530;5.454;2023-11-21T15:05:43;9.40;78.30
78733;DHT22;68056;52.530;5.454;2023-11-21T15:08:08;9.40;78.30
78733;DHT22;68056;52.530;5.454;2023-11-21T15:10:47;9.40;78.30
78733;DHT22;68056;52.530;5.454;2023-11-21T15:13:19;9.30;78.20
78733;DHT22;68056;52.530;5.454;2023-11-21T15:15:44;9.20;78.20
78733;DHT22;68056;52.530;5.454;2023-11-21T15:18:10;9.20;78.10
78733;DHT22;68056;52.530;5.454;2023-11-21T15:20:39;9.20;78.10
78733;DHT22;68056;52.530;5.454;2023-11-21T15:23:05;9.20;78.00
78733;DHT22;68056;52.530;5.454;2023-11-21T15:25:31;9.20;78.10
78733;DHT22;68056;52.530;5.454;2023-11-21T15:27:57;9.10;78.00
78733;DHT22;68056;52.530;5.454;2023-11-21T15:30:23;9.10;77.90
78733;DHT22;68056;52.530;5.454;2023-11-21T15:32:51;9.00;77.90
78733;DHT22;68056;52.530;5.454;2023-11-21T15:35:18;9.00;77.90
78733;DHT22;68056;52.530;5.454;2023-11-21T15:37:44;9.00;77.90
78733;DHT22;68056;52.530;5.454;2023-11-21T15:40:10;9.00;77.80
78733;DHT22;68056;52.530;5.454;2023-11-21T15:42:38;8.90;77.70
78733;DHT22;68056;52.530;5.454;2023-11-21T15:45:04;8.80;77.70
78733;DHT22;68056;52.530;5.454;2023-11-21T15:47:32;8.80;77.80
78733;DHT22;68056;52.530;5.454;2023-11-21T15:49:58;8.70;77.80
78733;DHT22;68056;52.530;5.454;2023-11-21T15:52:24;8.60;77.80
78733;DHT22;68056;52.530;5.454;2023-11-21T15:54:49;8.60;77.90